< < Back
Terminal Aerodrome Forecast


Current Version              Previous Versions:   1  2  3  4  5  6  7  8  9  

Terminal Aerodrome Forecast

606
FTUS42 KMLB 251744
TAFDAB
TAF
KDAB 251744Z 2518/2618 11007KT P6SM VCSH SCT040 SCT120
     FM252300 14005KT P6SM SCT040 BKN250
     FM261500 24006KT P6SM SCT030=



Latest METAR

103
SAUS80 KWBC 261100
MTRDAB
METAR KDAB 261053Z 21004KT 10SM SCT040 SCT070 SCT250 24/24 A3010 RMK AO2
SLP191 CB DSNT N NE T02440239


USA.gov is the U.S. government's official web portal to all federal, state and local government web resources and services.